Time;durP1;ratioP1;P1;durP2;ratioP2;P2;SDS_P1;SDS_P2;PMS_P1;PMS_P2;Temp;Humidity;BMP_temperature;BMP_pressure;BME280_temperature;BME280_humidity;BME280_pressure;Samples;Min_cycle;Max_cycle;Signal;HPM_P1;HPM_P2
2023/01/16 00:00:35;;;;;;;4.20;2.13;;;12.30;99.90;;;;;;4588905;19;20445;-30
2023/01/16 00:02:26;;;;;;;5.03;2.20;;;12.30;99.90;;;;;;4589044;19;20010;-34
2023/01/16 00:03:57;;;;;;;4.85;2.20;;;12.30;99.90;;;;;;4588497;19;20800;-30
2023/01/16 00:05:28;;;;;;;3.55;1.85;;;12.30;99.90;;;;;;4588211;19;20002;-33
2023/01/16 00:06:59;;;;;;;5.63;2.15;;;12.30;99.90;;;;;;4590956;19;20523;-30
2023/01/16 00:08:31;;;;;;;7.75;2.28;;;12.30;99.90;;;;;;4593462;19;20027;-31
2023/01/16 00:10:03;;;;;;;3.55;1.92;;;12.30;99.90;;;;;;4593609;19;20010;-30
2023/01/16 00:11:34;;;;;;;4.90;2.13;;;12.30;99.90;;;;;;4594302;19;20028;-30
2023/01/16 00:13:06;;;;;;;5.38;2.80;;;12.40;99.90;;;;;;4593494;19;20085;-30
2023/01/16 00:14:37;;;;;;;4.70;2.03;;;12.40;99.90;;;;;;4593787;19;20010;-31
2023/01/16 00:16:08;;;;;;;5.60;1.77;;;12.30;99.90;;;;;;4594078;19;20006;-30
2023/01/16 00:17:40;;;;;;;4.82;2.20;;;12.30;99.90;;;;;;4592195;19;20018;-30
2023/01/16 00:19:11;;;;;;;5.05;1.95;;;12.30;99.90;;;;;;4592503;19;20011;-30
2023/01/16 00:20:42;;;;;;;4.45;1.75;;;12.30;99.90;;;;;;4593353;19;20500;-30
2023/01/16 00:22:14;;;;;;;4.13;2.10;;;12.30;99.90;;;;;;4591611;19;20015;-30
2023/01/16 00:23:45;;;;;;;6.00;2.80;;;12.30;99.90;;;;;;4592796;19;20084;-31
2023/01/16 00:25:16;;;;;;;4.93;2.20;;;12.30;99.90;;;;;;4592419;19;20034;-30
2023/01/16 00:26:51;;;;;;;3.60;1.95;;;12.40;99.90;;;;;;4592773;19;20100;-30
2023/01/16 00:28:22;;;;;;;3.83;1.67;;;12.30;99.90;;;;;;4593753;19;20015;-30
2023/01/16 00:29:53;;;;;;;3.63;1.80;;;12.40;99.90;;;;;;4593063;19;20429;-30
2023/01/16 00:31:27;;;;;;;3.45;1.98;;;12.40;99.90;;;;;;4593541;19;20018;-30
2023/01/16 00:32:58;;;;;;;3.20;1.33;;;12.40;99.90;;;;;;4593528;19;20014;-30
2023/01/16 00:34:29;;;;;;;4.55;1.80;;;12.40;99.90;;;;;;4593255;19;20082;-30
2023/01/16 00:36:01;;;;;;;4.40;1.80;;;12.40;99.90;;;;;;4591737;19;20021;-30
2023/01/16 00:37:32;;;;;;;5.32;2.30;;;12.30;99.90;;;;;;4590349;19;20093;-31
2023/01/16 00:39:03;;;;;;;3.20;1.60;;;12.40;99.90;;;;;;4591162;19;20460;-30
2023/01/16 00:40:35;;;;;;;4.57;2.50;;;12.40;99.90;;;;;;4592420;19;20021;-30
2023/01/16 00:42:06;;;;;;;4.93;1.63;;;12.40;99.90;;;;;;4593033;19;20043;-30
2023/01/16 00:43:37;;;;;;;3.88;1.30;;;12.30;99.90;;;;;;4593551;19;20021;-30
2023/01/16 00:45:09;;;;;;;3.92;1.50;;;12.30;99.90;;;;;;4593454;19;20007;-30
2023/01/16 00:46:40;;;;;;;3.05;1.52;;;12.30;99.90;;;;;;4591584;19;20352;-30
2023/01/16 00:48:13;;;;;;;4.38;1.70;;;12.40;99.90;;;;;;4592575;19;20083;-30
2023/01/16 00:49:44;;;;;;;4.63;1.67;;;12.30;99.90;;;;;;4593307;19;20006;-30
2023/01/16 00:51:16;;;;;;;5.70;2.25;;;12.40;99.90;;;;;;4591596;19;20472;-30
2023/01/16 00:52:47;;;;;;;4.22;1.52;;;12.30;99.90;;;;;;4591375;19;20011;-31
2023/01/16 00:54:18;;;;;;;2.97;1.45;;;12.40;99.90;;;;;;4592473;19;20074;-30
2023/01/16 00:55:51;;;;;;;2.58;1.20;;;12.40;99.90;;;;;;4591821;19;20007;-30
2023/01/16 00:57:22;;;;;;;5.00;1.30;;;12.40;99.90;;;;;;4591340;19;20041;-30
2023/01/16 00:58:53;;;;;;;4.38;1.70;;;12.30;99.90;;;;;;4592074;19;20074;-30
2023/01/16 01:00:25;;;;;;;2.83;1.27;;;12.30;99.90;;;;;;4591302;19;20358;-30
2023/01/16 01:02:15;;;;;;;4.80;1.85;;;12.30;99.90;;;;;;4592150;19;20031;-30
2023/01/16 01:03:46;;;;;;;4.80;1.47;;;12.30;99.90;;;;;;4592130;19;20322;-31
2023/01/16 01:05:17;;;;;;;5.18;1.60;;;12.30;99.90;;;;;;4591898;19;20397;-31
2023/01/16 01:06:49;;;;;;;3.65;1.40;;;12.30;99.90;;;;;;4592716;19;20494;-31
2023/01/16 01:08:20;;;;;;;2.78;1.30;;;12.30;99.90;;;;;;4592871;19;20342;-30
2023/01/16 01:09:51;;;;;;;2.80;1.35;;;12.30;99.90;;;;;;4592585;19;20002;-30
2023/01/16 01:11:22;;;;;;;3.20;1.42;;;12.30;99.90;;;;;;4592177;19;20375;-31
2023/01/16 01:12:54;;;;;;;5.78;1.52;;;12.30;99.90;;;;;;4592807;19;20029;-30
2023/01/16 01:14:26;;;;;;;4.07;1.33;;;12.20;99.90;;;;;;4592847;19;20007;-29
2023/01/16 01:15:57;;;;;;;4.40;1.42;;;12.20;99.90;;;;;;4591948;19;20476;-31
2023/01/16 01:17:28;;;;;;;7.18;3.20;;;12.20;99.90;;;;;;4592461;19;20018;-30
2023/01/16 01:19:00;;;;;;;2.88;1.13;;;12.20;99.90;;;;;;4592254;19;20223;-30
2023/01/16 01:20:31;;;;;;;2.63;1.42;;;12.20;99.90;;;;;;4593017;19;19998;-30
2023/01/16 01:22:02;;;;;;;5.35;1.33;;;12.10;99.90;;;;;;4589974;19;20022;-30
2023/01/16 01:23:34;;;;;;;2.75;1.40;;;12.20;99.90;;;;;;4591069;19;20034;-30
2023/01/16 01:25:05;;;;;;;3.47;1.58;;;12.20;99.90;;;;;;4591525;19;20019;-30
2023/01/16 01:26:36;;;;;;;;;;;12.10;99.90;;;;;;4593489;19;20473;-31
2023/01/16 01:28:08;;;;;;;2.87;1.17;;;12.20;99.90;;;;;;4591750;19;20018;-30
2023/01/16 01:29:39;;;;;;;2.60;1.30;;;12.10;99.90;;;;;;4592035;19;20445;-30
2023/01/16 01:31:11;;;;;;;2.95;1.58;;;12.20;99.90;;;;;;4590838;19;20389;-31
2023/01/16 01:32:42;;;;;;;;;;;12.10;99.90;;;;;;4591467;19;20015;-30
2023/01/16 01:34:13;;;;;;;3.10;1.40;;;12.10;99.90;;;;;;4591258;19;20270;-30
2023/01/16 01:35:45;;;;;;;6.18;1.85;;;12.00;99.90;;;;;;4590862;19;20457;-30
2023/01/16 01:37:16;;;;;;;3.13;1.27;;;12.00;99.90;;;;;;4591821;19;20006;-30
2023/01/16 01:38:50;;;;;;;2.75;1.33;;;12.00;99.90;;;;;;4591394;19;20457;-31
2023/01/16 01:40:21;;;;;;;3.70;1.13;;;11.90;99.90;;;;;;4590141;19;20027;-30
2023/01/16 01:42:41;;;;;;;3.35;1.70;;;12.00;99.90;;;;;;4591669;19;20437;-30
2023/01/16 01:43:48;;;;;;;3.43;1.50;;;12.00;99.90;;;;;;4591861;19;20464;-30
2023/01/16 01:45:24;;;;;;;4.73;1.90;;;12.00;99.90;;;;;;4590401;19;20475;-30
2023/01/16 01:46:55;;;;;;;3.23;1.27;;;12.00;99.90;;;;;;4589064;19;20477;-30
2023/01/16 01:48:29;;;;;;;3.30;1.45;;;11.90;99.90;;;;;;4589199;19;20452;-30
2023/01/16 01:50:02;;;;;;;3.17;1.60;;;11.90;99.90;;;;;;4589356;19;20011;-30
2023/01/16 01:51:36;;;;;;;3.43;1.80;;;11.90;99.90;;;;;;4589373;19;20409;-30
2023/01/16 01:53:13;;;;;;;3.50;1.27;;;11.90;99.90;;;;;;4588916;19;20429;-30
2023/01/16 01:54:46;;;;;;;3.57;1.77;;;11.90;99.90;;;;;;4589107;19;20421;-30
2023/01/16 01:56:30;;;;;;;4.90;2.00;;;12.00;99.90;;;;;;4589692;19;20503;-31
2023/01/16 01:58:01;;;;;;;2.13;1.17;;;11.90;99.90;;;;;;4589328;19;20420;-30
2023/01/16 01:59:35;;;;;;;3.35;1.35;;;12.00;99.90;;;;;;4588215;19;20583;-31
2023/01/16 02:01:07;;;;;;;4.63;1.93;;;12.00;99.90;;;;;;4589292;19;20112;-32
2023/01/16 02:02:42;;;;;;;4.35;2.00;;;12.00;99.90;;;;;;4589032;19;20465;-31
2023/01/16 02:04:16;;;;;;;4.10;1.60;;;11.90;99.90;;;;;;4589760;19;19994;-32
2023/01/16 02:05:49;;;;;;;3.80;1.50;;;12.00;99.90;;;;;;4588682;19;20046;-30
2023/01/16 02:07:20;;;;;;;2.53;1.40;;;12.00;99.90;;;;;;4588776;19;20429;-32
2023/01/16 02:08:53;;;;;;;3.28;1.48;;;12.00;99.90;;;;;;4589169;19;20495;-30
2023/01/16 02:10:33;;;;;;;4.03;1.73;;;12.00;99.90;;;;;;4588983;19;20027;-32
2023/01/16 02:12:07;;;;;;;4.10;1.97;;;12.10;99.90;;;;;;4588806;19;20429;-31
2023/01/16 02:13:39;;;;;;;3.03;1.60;;;12.10;99.90;;;;;;4588813;19;20045;-29
2023/01/16 02:15:10;;;;;;;3.92;1.52;;;12.10;99.90;;;;;;4588862;19;20433;-31
2023/01/16 02:20:23;;;;;;;3.17;1.80;;;12.10;99.90;;;;;;4587557;19;20007;-30
2023/01/16 02:22:09;;;;;;;4.37;1.77;;;12.10;99.90;;;;;;4588578;19;20015;-31
2023/01/16 02:23:49;;;;;;;4.20;1.80;;;12.10;99.90;;;;;;4588890;19;20412;-30
2023/01/16 02:25:54;;;;;;;4.07;1.80;;;12.10;99.90;;;;;;4590614;19;20536;-33
2023/01/16 02:27:37;;;;;;;3.20;1.60;;;12.10;99.90;;;;;;4591186;19;20413;-29
2023/01/16 02:29:35;;;;;;;5.40;1.80;;;12.10;99.90;;;;;;4589423;19;20437;-33
2023/01/16 02:31:27;;;;;;;3.90;1.97;;;12.10;99.90;;;;;;4589599;19;20476;-31
2023/01/16 02:33:22;;;;;;;3.67;1.75;;;12.10;99.90;;;;;;4589421;19;20503;-33
2023/01/16 02:35:08;;;;;;;3.87;1.80;;;12.10;99.90;;;;;;4589302;19;20025;-31
2023/01/16 02:37:27;;;;;;;4.10;1.57;;;12.10;99.90;;;;;;4590549;19;20455;-30
2023/01/16 02:39:33;;;;;;;4.07;2.07;;;12.20;99.90;;;;;;4588192;19;20078;-29
2023/01/16 02:41:15;;;;;;;4.03;1.33;;;12.20;99.90;;;;;;4588070;19;20022;-31
2023/01/16 02:42:59;;;;;;;4.07;1.80;;;12.20;99.90;;;;;;4588073;19;20550;-28
2023/01/16 02:44:45;;;;;;;4.33;1.50;;;12.30;99.90;;;;;;4588297;19;20112;-32
2023/01/16 02:46:32;;;;;;;3.73;1.93;;;12.40;99.90;;;;;;4588023;19;20035;-29
2023/01/16 02:48:13;;;;;;;4.83;2.30;;;12.40;99.90;;;;;;4588365;19;20017;-29
2023/01/16 02:50:06;;;;;;;5.43;1.95;;;12.50;99.90;;;;;;4587813;19;20018;-28
2023/01/16 02:51:43;;;;;;;3.20;1.73;;;12.60;99.90;;;;;;4588141;19;20105;-29
2023/01/16 02:53:36;;;;;;;3.50;1.50;;;12.70;99.90;;;;;;4587853;19;20444;-29
2023/01/16 02:55:34;;;;;;;5.50;1.90;;;12.70;99.90;;;;;;4588081;19;20334;-29
2023/01/16 02:57:18;;;;;;;3.90;1.70;;;12.70;99.90;;;;;;4587279;19;20014;-31
2023/01/16 02:58:50;;;;;;;3.07;1.60;;;12.70;99.90;;;;;;4588457;19;20508;-30
2023/01/16 03:00:21;;;;;;;5.22;2.38;;;12.70;99.90;;;;;;4586776;19;20011;-29
2023/01/16 03:01:53;;;;;;;4.00;1.70;;;12.80;99.90;;;;;;4587738;19;20044;-31
2023/01/16 03:03:33;;;;;;;;;;;12.80;99.90;;;;;;4588629;19;20352;-29
2023/01/16 03:05:04;;;;;;;3.10;1.43;;;12.90;99.90;;;;;;4588280;19;19925;-31
2023/01/16 03:06:39;;;;;;;3.93;1.70;;;12.90;99.90;;;;;;4587899;19;20011;-29
2023/01/16 03:08:13;;;;;;;3.73;1.53;;;12.90;99.90;;;;;;4587561;19;20377;-30
2023/01/16 03:09:59;;;;;;;3.80;1.97;;;12.90;99.90;;;;;;4587368;19;20412;-30
2023/01/16 03:11:31;;;;;;;3.90;1.80;;;12.90;99.80;;;;;;4587546;19;20014;-28
2023/01/16 03:13:26;;;;;;;5.37;2.47;;;12.90;99.80;;;;;;4587710;19;20070;-29
2023/01/16 03:15:03;;;;;;;4.87;2.43;;;12.90;99.70;;;;;;4588031;19;20038;-28
2023/01/16 03:16:52;;;;;;;4.13;2.07;;;12.90;99.70;;;;;;4588575;19;20076;-30
2023/01/16 03:18:28;;;;;;;4.77;2.27;;;12.90;99.70;;;;;;4589502;19;20352;-29
2023/01/16 03:20:24;;;;;;;4.27;1.90;;;12.90;99.70;;;;;;4587995;19;20032;-29
2023/01/16 03:22:38;;;;;;;4.00;1.80;;;12.90;99.60;;;;;;4589807;19;20459;-31
2023/01/16 03:24:25;;;;;;;4.93;1.80;;;12.90;99.50;;;;;;4589237;19;20047;-31
2023/01/16 03:26:13;;;;;;;3.90;1.60;;;12.80;99.50;;;;;;4588390;19;20011;-32
2023/01/16 03:27:56;;;;;;;3.33;1.57;;;12.80;99.50;;;;;;4588774;19;20018;-30
2023/01/16 03:29:29;;;;;;;3.63;1.60;;;12.90;99.60;;;;;;4589248;19;20016;-32
2023/01/16 03:31:06;;;;;;;3.47;1.87;;;12.80;99.60;;;;;;4588304;19;20018;-32
2023/01/16 03:32:44;;;;;;;3.27;1.63;;;12.90;99.70;;;;;;4590252;19;20434;-32
2023/01/16 03:34:28;;;;;;;3.17;1.63;;;12.80;99.60;;;;;;4589801;19;20019;-29
2023/01/16 03:36:04;;;;;;;5.03;1.67;;;12.80;99.60;;;;;;4589597;19;20010;-30
2023/01/16 03:37:55;;;;;;;4.40;1.83;;;12.80;99.60;;;;;;4590760;19;20115;-31
2023/01/16 03:39:33;;;;;;;3.40;1.70;;;12.80;99.70;;;;;;4588888;19;20019;-30
2023/01/16 03:41:05;;;;;;;3.50;1.60;;;12.80;99.70;;;;;;4589241;19;20006;-33
2023/01/16 03:42:44;;;;;;;6.03;1.90;;;12.70;99.70;;;;;;4595473;19;20077;-32
2023/01/16 03:44:25;;;;;;;3.67;1.90;;;12.70;99.60;;;;;;4594350;19;20048;-30
2023/01/16 03:46:08;;;;;;;3.80;1.70;;;12.80;99.60;;;;;;4594954;19;20010;-31
2023/01/16 03:47:42;;;;;;;5.13;2.00;;;12.70;99.70;;;;;;4592954;19;20085;-31
2023/01/16 03:49:34;;;;;;;5.60;1.87;;;12.70;99.60;;;;;;4593016;19;20010;-30
2023/01/16 03:51:06;;;;;;;4.50;1.88;;;12.70;99.70;;;;;;4592707;19;20532;-30
2023/01/16 03:52:45;;;;;;;3.07;1.80;;;12.70;99.60;;;;;;4593961;19;20049;-30
2023/01/16 03:54:20;;;;;;;3.43;1.50;;;12.70;99.60;;;;;;4593794;19;20018;-30
2023/01/16 03:56:21;;;;;;;2.73;1.60;;;12.70;99.60;;;;;;4592738;19;20374;-30
2023/01/16 03:57:55;;;;;;;2.80;1.50;;;12.70;99.50;;;;;;4591438;19;20041;-31
2023/01/16 03:59:27;;;;;;;4.83;1.80;;;12.60;99.60;;;;;;4590755;19;20512;-31
2023/01/16 04:01:19;;;;;;;3.25;1.65;;;12.60;99.50;;;;;;4591713;19;20473;-31
2023/01/16 04:02:56;;;;;;;4.00;1.53;;;12.60;99.40;;;;;;4591442;19;20037;-31
2023/01/16 04:04:36;;;;;;;4.93;1.83;;;12.70;99.50;;;;;;4591463;19;20010;-30
2023/01/16 04:06:19;;;;;;;3.00;1.63;;;12.70;99.40;;;;;;4591323;19;20516;-31
2023/01/16 04:08:07;;;;;;;5.10;2.20;;;12.60;99.50;;;;;;4591768;19;20014;-33
2023/01/16 04:09:46;;;;;;;3.17;1.93;;;12.60;99.40;;;;;;4591443;19;20369;-30
2023/01/16 04:11:17;;;;;;;3.47;1.80;;;12.70;99.50;;;;;;4591193;19;20027;-32
2023/01/16 04:12:52;;;;;;;4.05;1.88;;;12.70;99.50;;;;;;4590950;19;20529;-32
2023/01/16 04:14:24;;;;;;;3.57;1.40;;;12.70;99.60;;;;;;4591424;19;20014;-31
2023/01/16 04:15:56;;;;;;;4.35;2.15;;;12.60;99.50;;;;;;4590937;19;20031;-30
2023/01/16 04:17:28;;;;;;;4.10;2.00;;;12.60;99.40;;;;;;4591592;19;20468;-30
2023/01/16 04:18:59;;;;;;;4.20;1.92;;;12.60;99.40;;;;;;4591186;19;20013;-33
2023/01/16 04:20:31;;;;;;;6.07;2.13;;;12.60;99.40;;;;;;4589638;19;20480;-30
2023/01/16 04:22:06;;;;;;;3.80;2.05;;;12.60;99.40;;;;;;4590413;19;20511;-31
2023/01/16 04:23:37;;;;;;;3.70;1.70;;;12.60;99.50;;;;;;4590926;19;20402;-32
2023/01/16 04:25:09;;;;;;;4.40;2.00;;;12.60;99.40;;;;;;4590996;19;20035;-32
2023/01/16 04:26:41;;;;;;;3.33;1.60;;;12.60;99.50;;;;;;4591423;19;20048;-29
2023/01/16 04:28:12;;;;;;;4.50;1.90;;;12.60;99.50;;;;;;4590974;19;20018;-30
2023/01/16 04:29:43;;;;;;;5.07;1.92;;;12.60;99.50;;;;;;4591105;19;20018;-32
2023/01/16 04:31:15;;;;;;;4.35;1.90;;;12.60;99.50;;;;;;4592696;19;20014;-32
2023/01/16 04:32:46;;;;;;;4.57;2.28;;;12.60;99.40;;;;;;4591258;19;19999;-30
2023/01/16 04:34:17;;;;;;;5.28;1.90;;;12.60;99.50;;;;;;4591052;19;20037;-32
2023/01/16 04:35:49;;;;;;;4.60;1.92;;;12.60;99.50;;;;;;4592599;19;20348;-30
2023/01/16 04:37:20;;;;;;;4.30;1.98;;;12.60;99.50;;;;;;4593230;19;20011;-30
2023/01/16 04:38:51;;;;;;;4.25;1.80;;;12.60;99.50;;;;;;4592350;19;20070;-30
2023/01/16 04:40:22;;;;;;;4.55;1.83;;;12.50;99.50;;;;;;4591371;19;20038;-30
2023/01/16 04:41:53;;;;;;;3.53;1.85;;;12.60;99.50;;;;;;4594397;19;20049;-32
2023/01/16 04:43:25;;;;;;;5.40;2.15;;;12.60;99.40;;;;;;4594772;19;20097;-31
2023/01/16 04:44:57;;;;;;;4.93;2.20;;;12.50;99.40;;;;;;4594129;19;20082;-31
2023/01/16 04:46:28;;;;;;;5.80;2.28;;;12.50;99.40;;;;;;4592511;19;20007;-31
2023/01/16 04:47:59;;;;;;;4.90;2.00;;;12.50;99.40;;;;;;4592446;19;20018;-31
2023/01/16 04:49:31;;;;;;;4.57;1.90;;;12.60;99.40;;;;;;4594005;19;20507;-30
2023/01/16 04:51:02;;;;;;;3.03;1.80;;;12.60;99.40;;;;;;4593340;19;20025;-32
2023/01/16 04:52:33;;;;;;;3.88;2.03;;;12.60;99.30;;;;;;4591947;19;20015;-31
2023/01/16 04:54:05;;;;;;;6.15;2.08;;;12.60;99.20;;;;;;4595041;19;20018;-31
2023/01/16 04:55:36;;;;;;;4.50;1.80;;;12.60;99.20;;;;;;4592345;19;20019;-32
2023/01/16 04:57:07;;;;;;;5.05;2.25;;;12.60;99.20;;;;;;4594775;19;20014;-30
2023/01/16 04:58:39;;;;;;;3.75;1.85;;;12.50;99.20;;;;;;4594411;19;20095;-31
2023/01/16 05:00:11;;;;;;;7.47;4.05;;;12.50;99.40;;;;;;4593873;19;20409;-31
2023/01/16 05:01:42;;;;;;;8.77;4.00;;;12.50;99.50;;;;;;4592738;19;20025;-31
2023/01/16 05:03:13;;;;;;;6.55;3.08;;;12.50;99.40;;;;;;4592920;19;20883;-31
2023/01/16 05:04:45;;;;;;;6.25;3.47;;;12.50;99.60;;;;;;4593786;19;20507;-31
2023/01/16 05:06:16;;;;;;;5.30;2.67;;;12.50;99.30;;;;;;4592782;19;20338;-30
2023/01/16 05:08:15;;;;;;;5.45;2.53;;;12.50;99.30;;;;;;4594379;19;20559;-30
2023/01/16 05:09:42;;;;;;;5.00;2.40;;;12.50;99.30;;;;;;4593708;19;20018;-32
2023/01/16 05:11:13;;;;;;;6.13;2.42;;;12.50;99.30;;;;;;4591776;19;20501;-30
2023/01/16 05:12:44;;;;;;;4.30;2.40;;;12.50;99.30;;;;;;4594551;19;20014;-31
2023/01/16 05:14:15;;;;;;;4.60;2.38;;;12.50;99.40;;;;;;4591974;19;20366;-33
2023/01/16 05:15:46;;;;;;;4.97;2.38;;;12.50;99.30;;;;;;4592130;19;20041;-32
2023/01/16 05:17:22;;;;;;;6.35;3.10;;;12.50;99.30;;;;;;4593212;19;20022;-31
2023/01/16 05:18:53;;;;;;;6.23;3.20;;;12.50;99.20;;;;;;4593236;19;20491;-31
2023/01/16 05:20:24;;;;;;;5.72;2.58;;;12.50;99.20;;;;;;4589641;19;20002;-31
2023/01/16 05:21:56;;;;;;;5.88;2.63;;;12.50;99.20;;;;;;4592327;19;20523;-31
2023/01/16 05:23:27;;;;;;;4.65;2.55;;;12.50;99.10;;;;;;4593158;19;20365;-31
2023/01/16 05:24:58;;;;;;;4.82;2.88;;;12.50;99.20;;;;;;4594275;19;20372;-32
2023/01/16 05:26:30;;;;;;;4.55;2.42;;;12.50;99.10;;;;;;4593449;19;20042;-30
2023/01/16 05:28:01;;;;;;;5.55;2.88;;;12.50;99.10;;;;;;4591838;19;20011;-28
2023/01/16 05:29:32;;;;;;;3.80;2.33;;;12.50;99.10;;;;;;4591978;19;20066;-31
2023/01/16 05:31:03;;;;;;;5.40;2.33;;;12.50;99.20;;;;;;4591920;19;20417;-31
2023/01/16 05:32:35;;;;;;;7.38;3.20;;;12.50;99.20;;;;;;4592074;19;20344;-33
2023/01/16 05:34:07;;;;;;;4.95;2.65;;;12.50;99.10;;;;;;4592808;19;20010;-30
2023/01/16 05:35:39;;;;;;;3.90;2.50;;;12.60;99.00;;;;;;4589418;19;20015;-29
2023/01/16 05:37:10;;;;;;;5.88;3.50;;;12.60;99.00;;;;;;4591286;19;20470;-33
2023/01/16 05:38:41;;;;;;;5.60;2.97;;;12.60;99.00;;;;;;4590667;19;20074;-32
2023/01/16 05:40:13;;;;;;;5.10;2.90;;;12.60;98.90;;;;;;4589610;19;20074;-30
2023/01/16 05:41:44;;;;;;;5.15;3.15;;;12.60;98.90;;;;;;4591550;19;20504;-31
2023/01/16 05:43:15;;;;;;;4.50;3.15;;;12.60;98.80;;;;;;4591851;19;20479;-31
2023/01/16 05:44:49;;;;;;;5.68;2.92;;;12.60;98.90;;;;;;4591808;19;20014;-31
2023/01/16 05:46:20;;;;;;;5.37;2.43;;;12.60;99.00;;;;;;4591645;19;20022;-31
2023/01/16 05:47:52;;;;;;;7.32;2.53;;;12.60;98.90;;;;;;4591356;19;20512;-30
2023/01/16 05:49:23;;;;;;;5.43;2.38;;;12.60;98.90;;;;;;4591704;19;20033;-31
2023/01/16 05:50:54;;;;;;;5.07;2.40;;;12.60;98.90;;;;;;4591306;19;20013;-31
2023/01/16 05:52:25;;;;;;;3.92;2.10;;;12.60;98.90;;;;;;4591667;19;20027;-30
2023/01/16 05:53:57;;;;;;;;;;;12.60;98.90;;;;;;4592784;19;20009;-33
2023/01/16 05:55:28;;;;;;;4.27;2.50;;;12.50;98.80;;;;;;4591868;19;19915;-32
2023/01/16 05:56:59;;;;;;;4.72;2.00;;;12.60;98.80;;;;;;4592371;19;20357;-29
2023/01/16 05:58:31;;;;;;;4.97;2.30;;;12.50;98.90;;;;;;4593490;19;20017;-30
2023/01/16 06:00:03;;;;;;;5.30;2.42;;;12.50;98.90;;;;;;4591805;19;20006;-32
2023/01/16 06:01:34;;;;;;;5.70;2.70;;;12.50;98.90;;;;;;4591534;19;20010;-29
2023/01/16 06:03:05;;;;;;;7.18;3.20;;;12.50;98.90;;;;;;4591212;19;21037;-32
2023/01/16 06:04:36;;;;;;;4.55;2.50;;;12.50;98.90;;;;;;4590044;19;20006;-29
2023/01/16 06:06:07;;;;;;;6.55;3.50;;;12.50;98.90;;;;;;4591846;19;20393;-29
2023/01/16 06:07:39;;;;;;;6.40;3.65;;;12.50;98.80;;;;;;4591066;19;20472;-31
2023/01/16 06:09:11;;;;;;;6.18;2.67;;;12.50;98.80;;;;;;4591234;19;20070;-29
2023/01/16 06:10:44;;;;;;;3.90;2.13;;;12.60;98.80;;;;;;4590103;19;20015;-30
2023/01/16 06:12:16;;;;;;;6.00;2.43;;;12.70;98.80;;;;;;4591053;19;20023;-29
2023/01/16 06:13:47;;;;;;;6.88;2.38;;;12.70;98.70;;;;;;4592238;19;20035;-33
2023/01/16 06:15:18;;;;;;;5.03;2.90;;;12.80;98.60;;;;;;4591034;19;20021;-31
2023/01/16 06:16:50;;;;;;;5.05;2.50;;;12.80;98.70;;;;;;4591181;19;20030;-30
2023/01/16 06:18:21;;;;;;;5.07;2.63;;;12.80;98.50;;;;;;4591516;19;20479;-29
2023/01/16 06:19:52;;;;;;;5.00;2.25;;;12.80;98.50;;;;;;4590280;19;20029;-30
2023/01/16 06:21:23;;;;;;;6.65;2.95;;;12.80;98.50;;;;;;4589945;19;20010;-32
2023/01/16 06:22:54;;;;;;;5.90;3.13;;;12.80;98.50;;;;;;4587016;19;20557;-30
2023/01/16 06:24:26;;;;;;;5.40;2.90;;;12.80;98.50;;;;;;4590157;19;20007;-31
2023/01/16 06:25:57;;;;;;;6.40;3.75;;;12.80;98.50;;;;;;4592588;19;20010;-30
2023/01/16 06:27:29;;;;;;;7.28;4.97;;;11.50;99.00;;;;;;4591091;19;20007;-30
2023/01/16 06:29:00;;;;;;;8.20;5.88;;;10.00;99.90;;;;;;4589661;19;20015;-30
2023/01/16 06:30:31;;;;;;;;;;;9.20;99.90;;;;;;4592488;19;20014;-31
2023/01/16 06:32:03;;;;;;;6.93;5.00;;;8.80;99.90;;;;;;4590667;19;20312;-31
2023/01/16 06:33:34;;;;;;;8.10;5.68;;;8.60;99.90;;;;;;4590644;19;20039;-30
2023/01/16 06:35:06;;;;;;;;;;;8.50;99.90;;;;;;4590412;19;20093;-30
2023/01/16 06:36:37;;;;;;;8.27;3.73;;;8.40;99.90;;;;;;4589224;19;19919;-30
2023/01/16 06:38:08;;;;;;;6.57;3.58;;;8.40;99.90;;;;;;4589953;19;20437;-30
2023/01/16 06:39:39;;;;;;;7.47;3.72;;;8.40;99.90;;;;;;4590184;19;20024;-29
2023/01/16 06:41:11;;;;;;;6.15;3.78;;;8.30;99.90;;;;;;4589846;19;20022;-29
2023/01/16 06:42:42;;;;;;;7.38;3.63;;;8.30;99.90;;;;;;4589930;19;20341;-30
2023/01/16 06:44:13;;;;;;;8.50;3.70;;;8.20;99.90;;;;;;4590959;19;20078;-29
2023/01/16 06:45:45;;;;;;;4.90;3.42;;;8.20;99.90;;;;;;4590586;19;20394;-30
2023/01/16 06:47:16;;;;;;;8.02;4.25;;;8.20;99.90;;;;;;4589107;19;20006;-30
2023/01/16 06:48:48;;;;;;;8.15;4.93;;;8.20;99.90;;;;;;4590304;19;20014;-31
2023/01/16 06:50:19;;;;;;;10.02;6.15;;;8.20;99.90;;;;;;4590355;19;20026;-30
2023/01/16 06:51:50;;;;;;;9.93;6.97;;;8.10;99.90;;;;;;4589423;19;20006;-29
2023/01/16 06:53:21;;;;;;;20.27;14.35;;;8.20;99.90;;;;;;4589829;19;20002;-30
2023/01/16 06:54:53;;;;;;;16.50;12.88;;;8.10;99.90;;;;;;4590189;19;20078;-31
2023/01/16 06:56:24;;;;;;;15.43;12.38;;;8.10;99.90;;;;;;4588890;19;20012;-31
2023/01/16 06:57:55;;;;;;;25.25;11.98;;;8.10;99.90;;;;;;4590803;19;20015;-31
2023/01/16 06:59:26;;;;;;;15.98;8.75;;;8.10;99.90;;;;;;4589792;19;20023;-32
2023/01/16 07:00:57;;;;;;;18.45;8.63;;;8.10;99.90;;;;;;4590734;19;20011;-31
2023/01/16 07:02:29;;;;;;;14.30;6.43;;;8.00;99.90;;;;;;4589346;19;20034;-30
2023/01/16 07:04:00;;;;;;;14.73;7.90;;;8.00;99.90;;;;;;4589639;19;20046;-30
2023/01/16 07:05:31;;;;;;;10.50;5.20;;;8.00;99.90;;;;;;4590059;19;20070;-32
2023/01/16 07:07:03;;;;;;;10.18;5.70;;;8.00;99.90;;;;;;4587863;19;20484;-29
2023/01/16 07:08:34;;;;;;;9.35;5.28;;;8.00;99.90;;;;;;4590655;19;20009;-32
2023/01/16 07:10:05;;;;;;;8.80;6.05;;;8.00;99.90;;;;;;4589881;19;20014;-31
2023/01/16 07:11:37;;;;;;;11.05;6.88;;;8.00;99.90;;;;;;4589088;19;20496;-31
2023/01/16 07:13:09;;;;;;;12.00;9.23;;;7.90;99.90;;;;;;4588945;19;20385;-29
2023/01/16 07:24:10;;;;;;;6.97;4.67;;;7.90;99.90;;;;;;4593788;19;21016;-31
2023/01/16 07:25:41;;;;;;;7.53;4.78;;;7.90;99.90;;;;;;4594251;19;20900;-31
2023/01/16 07:27:13;;;;;;;8.82;5.15;;;7.90;99.90;;;;;;4594636;19;20045;-29
2023/01/16 07:28:44;;;;;;;6.47;3.97;;;7.90;99.90;;;;;;4594323;19;20029;-31
2023/01/16 07:30:19;;;;;;;6.45;4.25;;;7.90;99.90;;;;;;4593070;19;20043;-32
2023/01/16 07:31:50;;;;;;;8.83;5.87;;;7.80;99.90;;;;;;4594258;19;20029;-30
2023/01/16 07:33:21;;;;;;;9.98;5.90;;;7.80;99.90;;;;;;4593346;19;20772;-29
2023/01/16 07:34:52;;;;;;;7.53;5.47;;;7.90;99.90;;;;;;4593890;19;20017;-31
2023/01/16 07:36:24;;;;;;;7.82;4.70;;;7.90;99.90;;;;;;4594803;19;20518;-31
2023/01/16 07:37:56;;;;;;;9.13;5.07;;;7.80;99.90;;;;;;4594098;19;20389;-32
2023/01/16 07:39:27;;;;;;;6.63;4.83;;;7.90;99.90;;;;;;4594665;19;20002;-30
2023/01/16 07:40:59;;;;;;;8.25;4.07;;;7.90;99.90;;;;;;4593505;19;20548;-31
2023/01/16 07:42:30;;;;;;;7.05;4.13;;;7.80;99.90;;;;;;4594415;19;20022;-30
2023/01/16 07:44:01;;;;;;;5.88;3.55;;;7.90;99.90;;;;;;4593421;19;20321;-29
2023/01/16 07:45:33;;;;;;;5.93;3.78;;;7.90;99.90;;;;;;4593442;19;20031;-31
2023/01/16 07:47:04;;;;;;;7.03;3.65;;;7.90;99.90;;;;;;4593671;19;20017;-29
2023/01/16 07:48:35;;;;;;;7.03;4.55;;;7.80;99.90;;;;;;4594065;19;20494;-29
2023/01/16 07:50:07;;;;;;;5.93;4.47;;;7.90;99.90;;;;;;4594886;19;20002;-29
2023/01/16 07:51:39;;;;;;;8.05;4.40;;;7.90;99.90;;;;;;4594047;19;20030;-36
2023/01/16 07:53:10;;;;;;;9.20;5.00;;;7.90;99.90;;;;;;4594256;19;20021;-30
2023/01/16 07:54:42;;;;;;;5.95;3.65;;;7.90;99.90;;;;;;4593800;19;20441;-29
2023/01/16 07:56:13;;;;;;;7.38;4.32;;;7.80;99.90;;;;;;4594094;19;20070;-30
2023/01/16 07:57:45;;;;;;;7.70;4.82;;;7.80;99.90;;;;;;4593715;19;20471;-29
2023/01/16 07:59:16;;;;;;;7.78;4.93;;;7.80;99.90;;;;;;4594030;19;20018;-28
2023/01/16 08:00:48;;;;;;;8.07;5.72;;;7.80;99.90;;;;;;4593436;19;20123;-28
2023/01/16 08:02:19;;;;;;;10.35;6.22;;;7.90;99.90;;;;;;4594339;19;20011;-29
2023/01/16 08:03:50;;;;;;;9.35;5.90;;;7.90;99.90;;;;;;4592585;19;20054;-30
2023/01/16 08:05:21;;;;;;;9.95;7.25;;;7.90;99.90;;;;;;4595392;19;20007;-29
2023/01/16 08:06:52;;;;;;;8.80;5.20;;;7.90;99.90;;;;;;4594139;19;20339;-31
2023/01/16 08:08:28;;;;;;;12.30;6.82;;;7.90;99.90;;;;;;4593607;19;20488;-30
2023/01/16 08:09:59;;;;;;;9.73;5.10;;;7.90;99.90;;;;;;4592203;19;20045;-32
2023/01/16 08:11:38;;;;;;;14.30;7.07;;;7.90;99.90;;;;;;4590255;19;21103;-32
2023/01/16 08:13:09;;;;;;;15.80;8.17;;;8.20;99.90;;;;;;4593664;19;20018;-31
2023/01/16 08:14:40;;;;;;;16.98;9.30;;;8.90;99.90;;;;;;4593049;19;20425;-30
2023/01/16 08:16:12;;;;;;;17.95;10.70;;;9.50;99.90;;;;;;4593483;19;20027;-29
2023/01/16 08:17:43;;;;;;;13.85;7.57;;;9.80;99.90;;;;;;4594719;19;20066;-32
2023/01/16 08:19:14;;;;;;;11.52;6.97;;;10.10;99.90;;;;;;4593808;19;20002;-30
2023/01/16 08:20:46;;;;;;;8.93;5.70;;;10.30;99.90;;;;;;4589675;19;20025;-30
2023/01/16 08:22:17;;;;;;;10.83;5.80;;;10.50;99.90;;;;;;4590904;19;20095;-29
2023/01/16 08:23:48;;;;;;;14.65;7.35;;;10.60;99.90;;;;;;4592526;19;21004;-31
2023/01/16 08:25:21;;;;;;;12.95;7.07;;;10.70;99.90;;;;;;4593859;19;20010;-29
2023/01/16 08:26:52;;;;;;;15.03;7.77;;;10.80;99.90;;;;;;4591489;19;20476;-29